sensor_id;sensor_type;location;lat;lon;timestamp;P1;durP1;ratioP1;P2;durP2;ratioP2
22665;SDS011;11499;49.486;11.104;2022-07-01T00:00:23;4.15;;;3.75;;
22665;SDS011;11499;49.486;11.104;2022-07-01T00:02:49;9.68;;;3.92;;
22665;SDS011;11499;49.486;11.104;2022-07-01T00:05:14;5.35;;;3.30;;
22665;SDS011;11499;49.486;11.104;2022-07-01T00:10:28;9.18;;;4.78;;
22665;SDS011;11499;49.486;11.104;2022-07-01T00:12:54;6.38;;;3.90;;
22665;SDS011;11499;49.486;11.104;2022-07-01T00:15:19;5.15;;;3.90;;
22665;SDS011;11499;49.486;11.104;2022-07-01T00:17:45;4.32;;;3.80;;
22665;SDS011;11499;49.486;11.104;2022-07-01T00:20:10;5.72;;;4.03;;
22665;SDS011;11499;49.486;11.104;2022-07-01T00:22:36;10.55;;;4.25;;
22665;SDS011;11499;49.486;11.104;2022-07-01T00:25:02;8.02;;;4.00;;
22665;SDS011;11499;49.486;11.104;2022-07-01T00:27:28;7.28;;;3.85;;
22665;SDS011;11499;49.486;11.104;2022-07-01T00:29:54;4.10;;;3.70;;
22665;SDS011;11499;49.486;11.104;2022-07-01T00:32:19;5.53;;;4.22;;
22665;SDS011;11499;49.486;11.104;2022-07-01T00:37:20;8.40;;;3.70;;
22665;SDS011;11499;49.486;11.104;2022-07-01T00:39:45;5.25;;;3.78;;
22665;SDS011;11499;49.486;11.104;2022-07-01T00:42:11;8.38;;;4.10;;
22665;SDS011;11499;49.486;11.104;2022-07-01T00:44:37;6.63;;;4.20;;
22665;SDS011;11499;49.486;11.104;2022-07-01T00:47:03;4.85;;;4.20;;
22665;SDS011;11499;49.486;11.104;2022-07-01T00:49:32;5.63;;;3.72;;
22665;SDS011;11499;49.486;11.104;2022-07-01T00:52:00;5.78;;;4.15;;
22665;SDS011;11499;49.486;11.104;2022-07-01T00:54:25;6.78;;;4.00;;
22665;SDS011;11499;49.486;11.104;2022-07-01T00:56:52;5.75;;;3.65;;
22665;SDS011;11499;49.486;11.104;2022-07-01T00:59:18;6.20;;;3.73;;
22665;SDS011;11499;49.486;11.104;2022-07-01T01:04:52;5.55;;;3.67;;
22665;SDS011;11499;49.486;11.104;2022-07-01T01:07:17;4.85;;;3.60;;
22665;SDS011;11499;49.486;11.104;2022-07-01T01:09:43;5.05;;;3.72;;
22665;SDS011;11499;49.486;11.104;2022-07-01T01:12:09;6.35;;;3.92;;
22665;SDS011;11499;49.486;11.104;2022-07-01T01:14:45;4.68;;;2.92;;
22665;SDS011;11499;49.486;11.104;2022-07-01T01:17:13;3.93;;;3.57;;
22665;SDS011;11499;49.486;11.104;2022-07-01T01:19:40;6.05;;;3.00;;
22665;SDS011;11499;49.486;11.104;2022-07-01T01:22:07;4.80;;;2.80;;
22665;SDS011;11499;49.486;11.104;2022-07-01T01:24:34;3.73;;;3.20;;
22665;SDS011;11499;49.486;11.104;2022-07-01T01:27:01;5.50;;;3.38;;
22665;SDS011;11499;49.486;11.104;2022-07-01T01:32:52;4.40;;;3.27;;
22665;SDS011;11499;49.486;11.104;2022-07-01T01:35:18;7.87;;;3.17;;
22665;SDS011;11499;49.486;11.104;2022-07-01T01:37:44;3.93;;;3.10;;
22665;SDS011;11499;49.486;11.104;2022-07-01T01:40:09;6.50;;;3.10;;
22665;SDS011;11499;49.486;11.104;2022-07-01T01:42:38;5.00;;;3.03;;
22665;SDS011;11499;49.486;11.104;2022-07-01T01:45:04;2.70;;;2.37;;
22665;SDS011;11499;49.486;11.104;2022-07-01T01:47:30;5.60;;;2.70;;
22665;SDS011;11499;49.486;11.104;2022-07-01T01:49:56;2.67;;;2.47;;
22665;SDS011;11499;49.486;11.104;2022-07-01T01:52:22;3.17;;;2.43;;
22665;SDS011;11499;49.486;11.104;2022-07-01T01:54:48;3.20;;;2.10;;
22665;SDS011;11499;49.486;11.104;2022-07-01T01:59:55;6.63;;;2.30;;
22665;SDS011;11499;49.486;11.104;2022-07-01T02:02:20;4.73;;;2.10;;
22665;SDS011;11499;49.486;11.104;2022-07-01T02:04:46;3.17;;;2.67;;
22665;SDS011;11499;49.486;11.104;2022-07-01T02:07:11;2.60;;;2.40;;
22665;SDS011;11499;49.486;11.104;2022-07-01T02:09:37;2.57;;;2.37;;
22665;SDS011;11499;49.486;11.104;2022-07-01T02:12:02;3.87;;;2.33;;
22665;SDS011;11499;49.486;11.104;2022-07-01T02:14:29;3.17;;;2.57;;
22665;SDS011;11499;49.486;11.104;2022-07-01T02:16:54;3.30;;;2.20;;
22665;SDS011;11499;49.486;11.104;2022-07-01T02:19:20;3.60;;;2.17;;
22665;SDS011;11499;49.486;11.104;2022-07-01T02:21:45;2.70;;;2.27;;
22665;SDS011;11499;49.486;11.104;2022-07-01T02:26:38;2.30;;;2.10;;
22665;SDS011;11499;49.486;11.104;2022-07-01T02:29:03;2.87;;;2.57;;
22665;SDS011;11499;49.486;11.104;2022-07-01T02:31:29;3.47;;;2.40;;
22665;SDS011;11499;49.486;11.104;2022-07-01T02:33:55;4.10;;;2.60;;
22665;SDS011;11499;49.486;11.104;2022-07-01T02:36:20;2.93;;;2.60;;
22665;SDS011;11499;49.486;11.104;2022-07-01T02:38:46;3.93;;;2.53;;
22665;SDS011;11499;49.486;11.104;2022-07-01T02:41:11;3.83;;;2.40;;
22665;SDS011;11499;49.486;11.104;2022-07-01T02:43:37;3.23;;;2.63;;
22665;SDS011;11499;49.486;11.104;2022-07-01T02:46:03;2.63;;;2.40;;
22665;SDS011;11499;49.486;11.104;2022-07-01T02:51:08;2.60;;;2.40;;
22665;SDS011;11499;49.486;11.104;2022-07-01T02:53:33;4.37;;;2.60;;
22665;SDS011;11499;49.486;11.104;2022-07-01T02:55:59;3.00;;;2.60;;
22665;SDS011;11499;49.486;11.104;2022-07-01T02:58:24;3.47;;;2.53;;
22665;SDS011;11499;49.486;11.104;2022-07-01T03:00:51;3.03;;;2.73;;
22665;SDS011;11499;49.486;11.104;2022-07-01T03:03:17;3.10;;;2.37;;
22665;SDS011;11499;49.486;11.104;2022-07-01T03:05:43;3.70;;;2.87;;
22665;SDS011;11499;49.486;11.104;2022-07-01T03:08:09;3.30;;;2.37;;
22665;SDS011;11499;49.486;11.104;2022-07-01T03:10:34;2.90;;;2.50;;
22665;SDS011;11499;49.486;11.104;2022-07-01T03:13:00;3.37;;;2.60;;
22665;SDS011;11499;49.486;11.104;2022-07-01T03:18:26;2.50;;;2.30;;
22665;SDS011;11499;49.486;11.104;2022-07-01T03:20:52;3.20;;;2.63;;
22665;SDS011;11499;49.486;11.104;2022-07-01T03:23:17;2.90;;;2.60;;
22665;SDS011;11499;49.486;11.104;2022-07-01T03:25:43;2.90;;;2.70;;
22665;SDS011;11499;49.486;11.104;2022-07-01T03:28:08;3.43;;;2.73;;
22665;SDS011;11499;49.486;11.104;2022-07-01T03:30:34;3.63;;;2.70;;
22665;SDS011;11499;49.486;11.104;2022-07-01T03:32:59;2.63;;;2.43;;
22665;SDS011;11499;49.486;11.104;2022-07-01T03:35:25;4.67;;;2.70;;
22665;SDS011;11499;49.486;11.104;2022-07-01T03:38:10;3.13;;;2.60;;
22665;SDS011;11499;49.486;11.104;2022-07-01T03:40:36;2.87;;;2.67;;
22665;SDS011;11499;49.486;11.104;2022-07-01T03:45:36;2.70;;;2.50;;
22665;SDS011;11499;49.486;11.104;2022-07-01T03:48:02;3.10;;;2.80;;
22665;SDS011;11499;49.486;11.104;2022-07-01T03:50:27;2.90;;;2.60;;
22665;SDS011;11499;49.486;11.104;2022-07-01T03:52:53;2.97;;;2.77;;
22665;SDS011;11499;49.486;11.104;2022-07-01T03:55:38;5.73;;;2.80;;
22665;SDS011;11499;49.486;11.104;2022-07-01T03:58:03;3.00;;;2.80;;
22665;SDS011;11499;49.486;11.104;2022-07-01T04:00:30;4.37;;;2.50;;
22665;SDS011;11499;49.486;11.104;2022-07-01T04:03:00;2.57;;;2.33;;
22665;SDS011;11499;49.486;11.104;2022-07-01T04:05:26;2.70;;;2.50;;
22665;SDS011;11499;49.486;11.104;2022-07-01T04:07:52;3.43;;;2.50;;
22665;SDS011;11499;49.486;11.104;2022-07-01T04:12:53;4.03;;;2.50;;
22665;SDS011;11499;49.486;11.104;2022-07-01T04:15:19;3.27;;;2.17;;
22665;SDS011;11499;49.486;11.104;2022-07-01T04:17:44;3.30;;;2.40;;
22665;SDS011;11499;49.486;11.104;2022-07-01T04:20:10;2.47;;;2.27;;
22665;SDS011;11499;49.486;11.104;2022-07-01T04:22:36;3.50;;;2.40;;
22665;SDS011;11499;49.486;11.104;2022-07-01T04:25:02;3.13;;;2.50;;
22665;SDS011;11499;49.486;11.104;2022-07-01T04:27:29;2.70;;;2.50;;
22665;SDS011;11499;49.486;11.104;2022-07-01T04:29:55;3.23;;;2.73;;
22665;SDS011;11499;49.486;11.104;2022-07-01T04:32:21;3.83;;;2.90;;
22665;SDS011;11499;49.486;11.104;2022-07-01T04:34:47;3.00;;;2.80;;
22665;SDS011;11499;49.486;11.104;2022-07-01T04:39:46;6.10;;;5.50;;
22665;SDS011;11499;49.486;11.104;2022-07-01T04:42:11;6.60;;;6.07;;
22665;SDS011;11499;49.486;11.104;2022-07-01T04:44:39;4.87;;;4.40;;
22665;SDS011;11499;49.486;11.104;2022-07-01T04:47:04;10.10;;;5.77;;
22665;SDS011;11499;49.486;11.104;2022-07-01T04:49:30;10.03;;;5.80;;
22665;SDS011;11499;49.486;11.104;2022-07-01T04:51:56;6.70;;;6.10;;
22665;SDS011;11499;49.486;11.104;2022-07-01T04:54:22;7.97;;;7.17;;
22665;SDS011;11499;49.486;11.104;2022-07-01T04:56:49;6.90;;;6.30;;
22665;SDS011;11499;49.486;11.104;2022-07-01T04:59:15;8.30;;;7.23;;
22665;SDS011;11499;49.486;11.104;2022-07-01T05:01:44;8.37;;;7.77;;
22665;SDS011;11499;49.486;11.104;2022-07-01T05:06:49;8.60;;;7.90;;
22665;SDS011;11499;49.486;11.104;2022-07-01T05:09:14;10.00;;;9.00;;
22665;SDS011;11499;49.486;11.104;2022-07-01T05:11:40;11.03;;;10.03;;
22665;SDS011;11499;49.486;11.104;2022-07-01T05:14:06;11.87;;;10.87;;
22665;SDS011;11499;49.486;11.104;2022-07-01T05:16:32;10.60;;;9.70;;
22665;SDS011;11499;49.486;11.104;2022-07-01T05:18:58;8.90;;;8.20;;
22665;SDS011;11499;49.486;11.104;2022-07-01T05:21:42;8.33;;;7.60;;
22665;SDS011;11499;49.486;11.104;2022-07-01T05:24:25;9.10;;;8.30;;
22665;SDS011;11499;49.486;11.104;2022-07-01T05:26:53;8.30;;;7.50;;
22665;SDS011;11499;49.486;11.104;2022-07-01T05:29:18;7.23;;;6.67;;
22665;SDS011;11499;49.486;11.104;2022-07-01T05:31:44;7.93;;;7.33;;
22665;SDS011;11499;49.486;11.104;2022-07-01T05:34:09;8.17;;;7.47;;
22665;SDS011;11499;49.486;11.104;2022-07-01T05:38:01;7.80;;;7.20;;
22665;SDS011;11499;49.486;11.104;2022-07-01T05:40:27;7.40;;;6.80;;
22665;SDS011;11499;49.486;11.104;2022-07-01T05:42:53;6.57;;;5.97;;
22665;SDS011;11499;49.486;11.104;2022-07-01T05:45:18;5.47;;;5.03;;
22665;SDS011;11499;49.486;11.104;2022-07-01T05:47:44;5.67;;;5.27;;
22665;SDS011;11499;49.486;11.104;2022-07-01T05:50:09;5.73;;;5.37;;
22665;SDS011;11499;49.486;11.104;2022-07-01T05:52:35;4.57;;;4.10;;
22665;SDS011;11499;49.486;11.104;2022-07-01T05:55:01;3.27;;;3.07;;
22665;SDS011;11499;49.486;11.104;2022-07-01T05:57:26;3.37;;;3.17;;
22665;SDS011;11499;49.486;11.104;2022-07-01T05:59:52;2.87;;;2.53;;
22665;SDS011;11499;49.486;11.104;2022-07-01T06:04:59;3.00;;;2.80;;
22665;SDS011;11499;49.486;11.104;2022-07-01T06:07:25;2.80;;;2.60;;
22665;SDS011;11499;49.486;11.104;2022-07-01T06:09:50;3.10;;;2.90;;
22665;SDS011;11499;49.486;11.104;2022-07-01T06:12:16;3.40;;;3.00;;
22665;SDS011;11499;49.486;11.104;2022-07-01T06:14:42;3.03;;;2.80;;
22665;SDS011;11499;49.486;11.104;2022-07-01T06:17:08;3.30;;;3.00;;
22665;SDS011;11499;49.486;11.104;2022-07-01T06:19:34;2.70;;;2.50;;
22665;SDS011;11499;49.486;11.104;2022-07-01T06:21:59;3.37;;;2.90;;
22665;SDS011;11499;49.486;11.104;2022-07-01T06:24:25;3.40;;;2.60;;
22665;SDS011;11499;49.486;11.104;2022-07-01T06:26:50;3.20;;;2.87;;
22665;SDS011;11499;49.486;11.104;2022-07-01T06:31:42;2.67;;;2.47;;
22665;SDS011;11499;49.486;11.104;2022-07-01T06:34:07;3.30;;;3.07;;
22665;SDS011;11499;49.486;11.104;2022-07-01T06:36:33;2.93;;;2.57;;
22665;SDS011;11499;49.486;11.104;2022-07-01T06:38:58;2.73;;;2.53;;
22665;SDS011;11499;49.486;11.104;2022-07-01T06:41:24;3.07;;;2.87;;
22665;SDS011;11499;49.486;11.104;2022-07-01T06:43:53;3.00;;;2.70;;
22665;SDS011;11499;49.486;11.104;2022-07-01T06:46:29;3.03;;;2.73;;
22665;SDS011;11499;49.486;11.104;2022-07-01T06:48:56;2.93;;;2.67;;
22665;SDS011;11499;49.486;11.104;2022-07-01T06:51:23;3.30;;;3.10;;
22665;SDS011;11499;49.486;11.104;2022-07-01T06:53:49;2.30;;;2.10;;
22665;SDS011;11499;49.486;11.104;2022-07-01T06:56:16;3.27;;;2.40;;
22665;SDS011;11499;49.486;11.104;2022-07-01T06:58:42;2.60;;;2.40;;
22665;SDS011;11499;49.486;11.104;2022-07-01T07:03:28;2.63;;;2.43;;
22665;SDS011;11499;49.486;11.104;2022-07-01T07:05:53;3.10;;;2.80;;
22665;SDS011;11499;49.486;11.104;2022-07-01T07:08:19;2.33;;;2.13;;
22665;SDS011;11499;49.486;11.104;2022-07-01T07:10:45;2.50;;;2.30;;
22665;SDS011;11499;49.486;11.104;2022-07-01T07:13:10;2.10;;;1.80;;
22665;SDS011;11499;49.486;11.104;2022-07-01T07:15:36;2.40;;;2.20;;
22665;SDS011;11499;49.486;11.104;2022-07-01T07:18:01;1.63;;;1.50;;
22665;SDS011;11499;49.486;11.104;2022-07-01T07:20:27;1.90;;;1.80;;
22665;SDS011;11499;49.486;11.104;2022-07-01T07:22:53;2.00;;;1.90;;
22665;SDS011;11499;49.486;11.104;2022-07-01T07:25:18;2.33;;;1.70;;
22665;SDS011;11499;49.486;11.104;2022-07-01T07:30:23;2.80;;;1.90;;
22665;SDS011;11499;49.486;11.104;2022-07-01T07:32:49;2.03;;;1.70;;
22665;SDS011;11499;49.486;11.104;2022-07-01T07:35:14;1.90;;;1.80;;
22665;SDS011;11499;49.486;11.104;2022-07-01T07:37:40;1.67;;;1.57;;
22665;SDS011;11499;49.486;11.104;2022-07-01T07:40:06;1.90;;;1.80;;
22665;SDS011;11499;49.486;11.104;2022-07-01T07:42:34;1.83;;;1.73;;
22665;SDS011;11499;49.486;11.104;2022-07-01T07:45:01;2.60;;;2.40;;
22665;SDS011;11499;49.486;11.104;2022-07-01T07:47:27;2.57;;;2.30;;
22665;SDS011;11499;49.486;11.104;2022-07-01T07:49:53;3.20;;;2.53;;
22665;SDS011;11499;49.486;11.104;2022-07-01T07:55:07;3.17;;;2.87;;
22665;SDS011;11499;49.486;11.104;2022-07-01T07:57:35;2.73;;;2.30;;
22665;SDS011;11499;49.486;11.104;2022-07-01T08:00:02;3.40;;;3.10;;
22665;SDS011;11499;49.486;11.104;2022-07-01T08:02:29;3.23;;;2.93;;
22665;SDS011;11499;49.486;11.104;2022-07-01T08:04:54;3.37;;;3.10;;
22665;SDS011;11499;49.486;11.104;2022-07-01T08:07:20;3.03;;;2.83;;
22665;SDS011;11499;49.486;11.104;2022-07-01T08:09:45;4.70;;;3.10;;
22665;SDS011;11499;49.486;11.104;2022-07-01T08:12:14;3.33;;;3.03;;
22665;SDS011;11499;49.486;11.104;2022-07-01T08:14:40;4.10;;;3.70;;
22665;SDS011;11499;49.486;11.104;2022-07-01T08:17:05;4.30;;;3.97;;
22665;SDS011;11499;49.486;11.104;2022-07-01T08:22:35;3.80;;;3.50;;
22665;SDS011;11499;49.486;11.104;2022-07-01T08:25:01;3.97;;;3.67;;
22665;SDS011;11499;49.486;11.104;2022-07-01T08:27:27;4.83;;;4.20;;
22665;SDS011;11499;49.486;11.104;2022-07-01T08:29:53;4.30;;;3.90;;
22665;SDS011;11499;49.486;11.104;2022-07-01T08:32:18;3.90;;;3.60;;
22665;SDS011;11499;49.486;11.104;2022-07-01T08:34:44;4.70;;;3.40;;
22665;SDS011;11499;49.486;11.104;2022-07-01T08:37:09;4.40;;;3.70;;
22665;SDS011;11499;49.486;11.104;2022-07-01T08:39:35;3.87;;;3.10;;
22665;SDS011;11499;49.486;11.104;2022-07-01T08:42:00;3.33;;;3.03;;
22665;SDS011;11499;49.486;11.104;2022-07-01T08:44:26;5.23;;;2.80;;
22665;SDS011;11499;49.486;11.104;2022-07-01T08:49:33;3.93;;;2.77;;
22665;SDS011;11499;49.486;11.104;2022-07-01T08:51:59;3.57;;;3.13;;
22665;SDS011;11499;49.486;11.104;2022-07-01T08:54:24;3.63;;;3.33;;
22665;SDS011;11499;49.486;11.104;2022-07-01T08:56:50;4.30;;;3.27;;
22665;SDS011;11499;49.486;11.104;2022-07-01T08:59:22;3.27;;;2.80;;
22665;SDS011;11499;49.486;11.104;2022-07-01T09:01:57;4.07;;;3.00;;
22665;SDS011;11499;49.486;11.104;2022-07-01T09:04:24;3.33;;;2.50;;
22665;SDS011;11499;49.486;11.104;2022-07-01T09:06:50;2.80;;;2.60;;
22665;SDS011;11499;49.486;11.104;2022-07-01T09:09:21;3.60;;;3.17;;
22665;SDS011;11499;49.486;11.104;2022-07-01T09:11:48;3.30;;;3.00;;
22665;SDS011;11499;49.486;11.104;2022-07-01T09:17:03;3.30;;;3.00;;
22665;SDS011;11499;49.486;11.104;2022-07-01T09:19:34;2.90;;;2.70;;
22665;SDS011;11499;49.486;11.104;2022-07-01T09:22:02;3.10;;;2.80;;
22665;SDS011;11499;49.486;11.104;2022-07-01T09:24:37;3.20;;;2.90;;
22665;SDS011;11499;49.486;11.104;2022-07-01T09:27:10;3.23;;;2.93;;
22665;SDS011;11499;49.486;11.104;2022-07-01T09:29:50;3.07;;;2.77;;
22665;SDS011;11499;49.486;11.104;2022-07-01T09:32:19;3.60;;;3.30;;
22665;SDS011;11499;49.486;11.104;2022-07-01T09:34:46;3.13;;;2.80;;
22665;SDS011;11499;49.486;11.104;2022-07-01T09:37:14;3.10;;;2.47;;
22665;SDS011;11499;49.486;11.104;2022-07-01T09:39:45;2.73;;;2.20;;
22665;SDS011;11499;49.486;11.104;2022-07-01T09:42:52;2.63;;;2.37;;
22665;SDS011;11499;49.486;11.104;2022-07-01T09:45:20;3.70;;;2.90;;
22665;SDS011;11499;49.486;11.104;2022-07-01T09:47:47;3.57;;;2.93;;
22665;SDS011;11499;49.486;11.104;2022-07-01T09:50:13;2.80;;;2.60;;
22665;SDS011;11499;49.486;11.104;2022-07-01T09:52:39;2.90;;;2.70;;
22665;SDS011;11499;49.486;11.104;2022-07-01T09:55:05;2.63;;;2.00;;
22665;SDS011;11499;49.486;11.104;2022-07-01T09:57:31;3.00;;;2.27;;
22665;SDS011;11499;49.486;11.104;2022-07-01T09:59:56;2.30;;;2.10;;
22665;SDS011;11499;49.486;11.104;2022-07-01T10:02:23;3.13;;;2.10;;
22665;SDS011;11499;49.486;11.104;2022-07-01T10:04:51;2.87;;;2.13;;
22665;SDS011;11499;49.486;11.104;2022-07-01T10:10:34;2.40;;;2.20;;
22665;SDS011;11499;49.486;11.104;2022-07-01T10:13:05;2.53;;;2.33;;
22665;SDS011;11499;49.486;11.104;2022-07-01T10:15:32;2.50;;;2.30;;
22665;SDS011;11499;49.486;11.104;2022-07-01T10:17:59;3.67;;;2.50;;
22665;SDS011;11499;49.486;11.104;2022-07-01T10:22:59;3.17;;;2.90;;
22665;SDS011;11499;49.486;11.104;2022-07-01T10:25:45;4.03;;;2.73;;
22665;SDS011;11499;49.486;11.104;2022-07-01T10:28:16;2.50;;;2.30;;
22665;SDS011;11499;49.486;11.104;2022-07-01T10:36:38;2.00;;;1.90;;
22665;SDS011;11499;49.486;11.104;2022-07-01T10:39:07;2.90;;;2.70;;
22665;SDS011;11499;49.486;11.104;2022-07-01T10:41:41;2.93;;;2.30;;
22665;SDS011;11499;49.486;11.104;2022-07-01T10:44:11;2.33;;;2.13;;
22665;SDS011;11499;49.486;11.104;2022-07-01T10:46:42;2.57;;;2.37;;
22665;SDS011;11499;49.486;11.104;2022-07-01T10:51:59;2.43;;;2.23;;
22665;SDS011;11499;49.486;11.104;2022-07-01T11:05:02;3.17;;;2.20;;
22665;SDS011;11499;49.486;11.104;2022-07-01T11:07:29;2.33;;;2.03;;
22665;SDS011;11499;49.486;11.104;2022-07-01T11:09:56;2.10;;;1.90;;
22665;SDS011;11499;49.486;11.104;2022-07-01T11:12:23;1.90;;;1.80;;
22665;SDS011;11499;49.486;11.104;2022-07-01T11:14:49;2.30;;;2.10;;
22665;SDS011;11499;49.486;11.104;2022-07-01T11:17:15;2.30;;;2.17;;
22665;SDS011;11499;49.486;11.104;2022-07-01T11:19:48;3.00;;;2.70;;
22665;SDS011;11499;49.486;11.104;2022-07-01T11:22:19;2.70;;;2.50;;
22665;SDS011;11499;49.486;11.104;2022-07-01T11:24:46;2.90;;;2.70;;
22665;SDS011;11499;49.486;11.104;2022-07-01T11:29:37;2.70;;;2.50;;
22665;SDS011;11499;49.486;11.104;2022-07-01T11:32:03;3.13;;;2.80;;
22665;SDS011;11499;49.486;11.104;2022-07-01T11:34:29;3.07;;;2.77;;
22665;SDS011;11499;49.486;11.104;2022-07-01T11:36:55;3.10;;;2.90;;
22665;SDS011;11499;49.486;11.104;2022-07-01T11:39:40;3.30;;;2.87;;
22665;SDS011;11499;49.486;11.104;2022-07-01T11:42:08;3.27;;;3.03;;
22665;SDS011;11499;49.486;11.104;2022-07-01T11:44:37;2.80;;;2.60;;
22665;SDS011;11499;49.486;11.104;2022-07-01T11:47:05;3.03;;;2.83;;
22665;SDS011;11499;49.486;11.104;2022-07-01T11:49:33;3.50;;;3.20;;
22665;SDS011;11499;49.486;11.104;2022-07-01T11:54:54;2.70;;;2.50;;
22665;SDS011;11499;49.486;11.104;2022-07-01T11:57:23;4.73;;;2.80;;
22665;SDS011;11499;49.486;11.104;2022-07-01T11:59:52;3.03;;;2.83;;
22665;SDS011;11499;49.486;11.104;2022-07-01T12:02:20;2.77;;;2.57;;
22665;SDS011;11499;49.486;11.104;2022-07-01T12:04:47;3.40;;;2.77;;
22665;SDS011;11499;49.486;11.104;2022-07-01T12:07:14;3.33;;;3.03;;
22665;SDS011;11499;49.486;11.104;2022-07-01T12:09:41;2.97;;;2.73;;
22665;SDS011;11499;49.486;11.104;2022-07-01T12:12:14;3.70;;;3.20;;
22665;SDS011;11499;49.486;11.104;2022-07-01T12:14:48;3.20;;;2.90;;
22665;SDS011;11499;49.486;11.104;2022-07-01T12:20:00;2.97;;;2.70;;
22665;SDS011;11499;49.486;11.104;2022-07-01T12:22:26;2.80;;;2.47;;
22665;SDS011;11499;49.486;11.104;2022-07-01T12:24:53;2.60;;;2.00;;
22665;SDS011;11499;49.486;11.104;2022-07-01T12:27:33;2.53;;;2.33;;
22665;SDS011;11499;49.486;11.104;2022-07-01T12:30:00;2.30;;;2.10;;
22665;SDS011;11499;49.486;11.104;2022-07-01T12:32:27;3.00;;;2.80;;
22665;SDS011;11499;49.486;11.104;2022-07-01T12:35:00;2.50;;;2.30;;
22665;SDS011;11499;49.486;11.104;2022-07-01T12:37:37;2.80;;;2.50;;
22665;SDS011;11499;49.486;11.104;2022-07-01T12:40:07;2.70;;;2.50;;
22665;SDS011;11499;49.486;11.104;2022-07-01T12:42:44;3.73;;;3.13;;
22665;SDS011;11499;49.486;11.104;2022-07-01T12:47:29;3.40;;;3.10;;
22665;SDS011;11499;49.486;11.104;2022-07-01T12:50:09;3.50;;;3.20;;
22665;SDS011;11499;49.486;11.104;2022-07-01T12:52:35;7.03;;;3.40;;
22665;SDS011;11499;49.486;11.104;2022-07-01T12:55:12;4.57;;;3.57;;
22665;SDS011;11499;49.486;11.104;2022-07-01T12:57:42;4.33;;;3.50;;
22665;SDS011;11499;49.486;11.104;2022-07-01T13:00:08;4.10;;;3.63;;
22665;SDS011;11499;49.486;11.104;2022-07-01T13:02:33;4.90;;;4.50;;
22665;SDS011;11499;49.486;11.104;2022-07-01T13:04:59;4.13;;;3.83;;
22665;SDS011;11499;49.486;11.104;2022-07-01T13:07:24;4.40;;;3.43;;
22665;SDS011;11499;49.486;11.104;2022-07-01T13:09:50;3.53;;;2.73;;
22665;SDS011;11499;49.486;11.104;2022-07-01T13:14:58;2.60;;;2.03;;
22665;SDS011;11499;49.486;11.104;2022-07-01T13:17:24;3.90;;;2.90;;
22665;SDS011;11499;49.486;11.104;2022-07-01T13:19:50;2.53;;;2.23;;
22665;SDS011;11499;49.486;11.104;2022-07-01T13:22:15;2.23;;;2.03;;
22665;SDS011;11499;49.486;11.104;2022-07-01T13:24:41;4.37;;;2.73;;
22665;SDS011;11499;49.486;11.104;2022-07-01T13:27:07;3.27;;;2.97;;
22665;SDS011;11499;49.486;11.104;2022-07-01T13:29:32;2.80;;;2.60;;
22665;SDS011;11499;49.486;11.104;2022-07-01T13:31:58;2.67;;;2.47;;
22665;SDS011;11499;49.486;11.104;2022-07-01T13:34:24;3.20;;;2.50;;
22665;SDS011;11499;49.486;11.104;2022-07-01T13:36:49;2.57;;;2.37;;
22665;SDS011;11499;49.486;11.104;2022-07-01T13:41:20;3.83;;;2.23;;
22665;SDS011;11499;49.486;11.104;2022-07-01T13:43:46;2.50;;;2.20;;
22665;SDS011;11499;49.486;11.104;2022-07-01T13:46:12;5.47;;;4.20;;
22665;SDS011;11499;49.486;11.104;2022-07-01T13:48:37;3.10;;;2.40;;
22665;SDS011;11499;49.486;11.104;2022-07-01T13:51:03;2.57;;;2.27;;
22665;SDS011;11499;49.486;11.104;2022-07-01T13:53:28;2.23;;;2.03;;
22665;SDS011;11499;49.486;11.104;2022-07-01T13:55:54;2.60;;;2.20;;
22665;SDS011;11499;49.486;11.104;2022-07-01T13:58:19;2.10;;;1.90;;
22665;SDS011;11499;49.486;11.104;2022-07-01T14:00:45;2.80;;;1.80;;
22665;SDS011;11499;49.486;11.104;2022-07-01T14:03:10;2.00;;;1.80;;
22665;SDS011;11499;49.486;11.104;2022-07-01T14:08:16;1.80;;;1.57;;
22665;SDS011;11499;49.486;11.104;2022-07-01T14:10:41;2.53;;;1.43;;
22665;SDS011;11499;49.486;11.104;2022-07-01T14:13:07;2.83;;;1.20;;
22665;SDS011;11499;49.486;11.104;2022-07-01T14:15:33;2.20;;;1.20;;
22665;SDS011;11499;49.486;11.104;2022-07-01T14:18:00;2.13;;;1.23;;
22665;SDS011;11499;49.486;11.104;2022-07-01T14:20:26;1.63;;;1.30;;
22665;SDS011;11499;49.486;11.104;2022-07-01T14:22:51;1.63;;;1.20;;
22665;SDS011;11499;49.486;11.104;2022-07-01T14:25:18;1.93;;;1.10;;
22665;SDS011;11499;49.486;11.104;2022-07-01T14:27:44;2.43;;;1.30;;
22665;SDS011;11499;49.486;11.104;2022-07-01T14:30:11;1.60;;;1.40;;
22665;SDS011;11499;49.486;11.104;2022-07-01T14:35:13;1.40;;;1.30;;
22665;SDS011;11499;49.486;11.104;2022-07-01T14:37:39;1.57;;;1.40;;
22665;SDS011;11499;49.486;11.104;2022-07-01T14:40:05;1.87;;;1.43;;
22665;SDS011;11499;49.486;11.104;2022-07-01T14:42:31;2.23;;;1.63;;
22665;SDS011;11499;49.486;11.104;2022-07-01T14:44:56;2.30;;;1.50;;
22665;SDS011;11499;49.486;11.104;2022-07-01T14:47:22;1.80;;;1.53;;
22665;SDS011;11499;49.486;11.104;2022-07-01T14:49:48;1.53;;;1.43;;
22665;SDS011;11499;49.486;11.104;2022-07-01T14:52:18;1.50;;;1.40;;
22665;SDS011;11499;49.486;11.104;2022-07-01T14:54:45;2.70;;;1.70;;
22665;SDS011;11499;49.486;11.104;2022-07-01T14:57:11;1.77;;;1.67;;
22665;SDS011;11499;49.486;11.104;2022-07-01T15:02:09;1.83;;;1.33;;
22665;SDS011;11499;49.486;11.104;2022-07-01T15:04:35;2.13;;;1.50;;
22665;SDS011;11499;49.486;11.104;2022-07-01T15:07:01;1.57;;;1.47;;
22665;SDS011;11499;49.486;11.104;2022-07-01T15:09:26;2.15;;;1.67;;
22665;SDS011;11499;49.486;11.104;2022-07-01T15:11:52;4.25;;;1.63;;
22665;SDS011;11499;49.486;11.104;2022-07-01T15:14:17;2.25;;;1.45;;
22665;SDS011;11499;49.486;11.104;2022-07-01T15:16:43;1.52;;;1.30;;
22665;SDS011;11499;49.486;11.104;2022-07-01T15:19:09;2.15;;;1.50;;
22665;SDS011;11499;49.486;11.104;2022-07-01T15:21:36;2.30;;;1.50;;
22665;SDS011;11499;49.486;11.104;2022-07-01T15:24:02;3.60;;;1.40;;
22665;SDS011;11499;49.486;11.104;2022-07-01T15:28:47;1.33;;;1.20;;
22665;SDS011;11499;49.486;11.104;2022-07-01T15:31:13;1.50;;;1.40;;
22665;SDS011;11499;49.486;11.104;2022-07-01T15:33:39;3.03;;;1.50;;
22665;SDS011;11499;49.486;11.104;2022-07-01T15:36:05;1.45;;;1.35;;
22665;SDS011;11499;49.486;11.104;2022-07-01T15:38:30;3.95;;;1.50;;
22665;SDS011;11499;49.486;11.104;2022-07-01T15:40:56;2.17;;;1.40;;
22665;SDS011;11499;49.486;11.104;2022-07-01T15:43:21;2.35;;;1.83;;
22665;SDS011;11499;49.486;11.104;2022-07-01T15:45:47;2.67;;;1.40;;
22665;SDS011;11499;49.486;11.104;2022-07-01T15:48:12;1.55;;;1.42;;
22665;SDS011;11499;49.486;11.104;2022-07-01T15:50:39;2.65;;;1.52;;
22665;SDS011;11499;49.486;11.104;2022-07-01T15:56:16;1.70;;;1.60;;
22665;SDS011;11499;49.486;11.104;2022-07-01T15:58:42;1.80;;;1.50;;
22665;SDS011;11499;49.486;11.104;2022-07-01T16:01:08;2.08;;;1.58;;
22665;SDS011;11499;49.486;11.104;2022-07-01T16:03:34;1.60;;;1.48;;
22665;SDS011;11499;49.486;11.104;2022-07-01T16:06:02;1.50;;;1.40;;
22665;SDS011;11499;49.486;11.104;2022-07-01T16:08:33;1.73;;;1.35;;
22665;SDS011;11499;49.486;11.104;2022-07-01T16:11:08;1.90;;;1.17;;
22665;SDS011;11499;49.486;11.104;2022-07-01T16:13:39;3.70;;;1.30;;
22665;SDS011;11499;49.486;11.104;2022-07-01T16:16:21;1.52;;;1.27;;
22665;SDS011;11499;49.486;11.104;2022-07-01T16:18:49;1.83;;;1.05;;
22665;SDS011;11499;49.486;11.104;2022-07-01T16:22:02;1.40;;;1.30;;